Cape Romanzof LRRS, AK

7:43 PM AKST on December 18, 2014 (GMT -0900)
Cape Romanzoff | Change Station
CLOSE
Current Station
Airport
Location: Cape Romanzoff,
Elevation: 479 ft
Nearby Weather Stations

Elev 479 ft 61.78 °N, 166.04 °W | Updated 48 minutes ago

Overcast
Overcast
26 °F
Feels Like 26 °F
N
1
Wind Variable Wind from SSE

Today
High -- | Low -- °F
--% Chance of Precip.
Yesterday
High -- | Low -- °F
Precip. -- in
11:23 AM 4:38 PM
Waning Crescent, 10% visible
Pressure 29.30 in
Visibility 10.0 miles
Clouds Overcast 9000 ft
Dew Point 19 °F
Humidity 74%
Rainfall 0.00 in
Snow Depth Not available.
UV 0 out of 12
Pollen Not available.
Air Quality Not available.
Flu Activity Not available.
METAR PACZ 190355Z AUTO 16001KT 10SM OVC090 M03/M07 A2928 RMK AO2 SLP921 T10311072

More Conditions Fewer Conditions

Pressure 29.30 in
Visibility 10.0 miles
Clouds Overcast 9000 ft
Dew Point 19 °F
Humidity 74%
Rainfall 0.00 in
Snow Depth Not available.
UV 0 out of 12
Pollen Not available.
Air Quality Not available.
Flu Activity Not available.
METAR PACZ 190355Z AUTO 16001KT 10SM OVC090 M03/M07 A2928 RMK AO2 SLP921 T10311072

More Conditions Fewer Conditions

10-Day Weather Forecast

Almanac

Astronomy

Dec. 18, 2014 Rise Set
Actual Time
Civil Twilight
Nautical Twilight
Astronomical Twilight
Moon
Length of Visible Light
Length of Day
Tomorrow will be .
, % of the Moon is Illuminated

Today's Extremes

State Highs State Lows

Community

WunderPhotos

Upload Photos

1,778,960 photos uploaded!

WunderBlogs® & News

Nearby

Air Quality

  Air Quality AQ Index Pollutant
Not available.

Snow Depth

Station Depth Elevation

Earthquake Activity

City Distance Mag. Time & Date
Minimum magnitude displayed is 2.5.

Coastal Water Temperatures

Place Temperature

Nearby Weather Stations